CheckWX is a tool to help pilots better visualize weather data.  It is not intended as a substitute for an official pre-flight weather briefing.

03:23:06 UTC

KCOU METAR
Columbia Regional Airport
Columbia, Missouri, USA
Current

29 mins ago

KCOU 260254Z AUTO 20005KT 10SM CLR 23/19 A2998 RMK AO2 SLP144 T02330194 53001 $
Observed
May-26 @ 02:54 UTC
Wind
  • 200° at 5 KTS
Visibility
10 SM
Flight Rules
VFR
Cloud Levels
  • Clear skies
Temperature
23°C / 73°F
Dewpoint
19°C / 66°F
Humidity
78%
Altimeter
29.98" Hg
Pressure
1015.22 hPa
Previous

1 hour ago

KCOU 260154Z 17004KT 10SM CLR 26/19 A2997 RMK AO2 SLP140 T02560194 $
Observed
May-26 @ 01:54 UTC
Wind
  • 170° at 4 KTS
Visibility
10 SM
Flight Rules
VFR
Cloud Levels
  • Clear skies
Temperature
26°C / 79°F
Dewpoint
19°C / 66°F
Humidity
65%
Altimeter
29.97" Hg
Pressure
1014.92 hPa
Previous

2 hours ago

KCOU 260054Z 19006KT 10SM CLR 26/20 A2996 RMK AO2 SLP138 T02560200 $
Observed
May-26 @ 00:54 UTC
Wind
  • 190° at 6 KTS
Visibility
10 SM
Flight Rules
VFR
Cloud Levels
  • Clear skies
Temperature
26°C / 79°F
Dewpoint
20°C / 68°F
Humidity
70%
Altimeter
29.96" Hg
Pressure
1014.52 hPa